Terminal Aerodrome Forecast
Issued by NWS Missoula, MT

Home | Current Version | Previous Version | Text Only | Print | Product List | Glossary On
Versions: 1 2 3 4 5 6 7 8 9 10 11 12 13 14 15
219
FTUS45 KMSO 290013 AAA
TAFGPI
TAF AMD
KGPI 290013Z 2900/2924 35009KT P6SM -TSRA BKN100CB
     FM290100 28010KT P6SM VCSH BKN080
     FM290200 35008KT P6SM -SHRA VCTS SCT060CB OVC080
     FM290430 35006KT P6SM -SHRA BKN060
     FM291200 VRB03KT P6SM SCT070=

USA.gov is the U.S. government's official web portal to all federal, state and local government web resources and services.